Time;durP1;ratioP1;P1;durP2;ratioP2;P2;SDS_P1;SDS_P2;PMS_P1;PMS_P2;Temp;Humidity;BMP_temperature;BMP_pressure;BME280_temperature;BME280_humidity;BME280_pressure;Samples;Min_cycle;Max_cycle;Signal;HPM_P1;HPM_P2
2023/09/27 00:00:22;;;;;;;8.80;5.38;;;;;;;24.15;48.55;100925.81;5114054;28;20393;-64
2023/09/27 00:02:52;;;;;;;9.13;5.35;;;;;;;24.16;48.83;100922.06;5114421;28;20435;-65
2023/09/27 00:05:21;;;;;;;11.32;5.60;;;;;;;24.15;48.56;100923.94;5114078;28;20134;-65
2023/09/27 00:07:51;;;;;;;7.65;5.20;;;;;;;24.14;48.66;100919.50;5114081;28;20043;-64
2023/09/27 00:10:20;;;;;;;9.38;5.65;;;;;;;24.14;48.68;100924.09;5114198;28;20507;-65
2023/09/27 00:12:48;;;;;;;8.00;5.28;;;;;;;24.13;48.84;100925.97;5114017;28;20058;-65
2023/09/27 00:15:16;;;;;;;9.68;5.90;;;;;;;24.10;48.86;100922.72;5113867;28;20559;-63
2023/09/27 00:17:44;;;;;;;9.30;5.75;;;;;;;24.11;48.75;100927.13;5114093;28;20043;-64
2023/09/27 00:20:15;;;;;;;9.38;5.70;;;;;;;24.10;48.91;100922.72;5113866;28;20054;-65
2023/09/27 00:22:45;;;;;;;9.55;5.75;;;;;;;24.09;48.66;100921.00;5113836;28;20086;-65
2023/09/27 00:25:14;;;;;;;9.40;5.97;;;;;;;24.08;48.77;100922.88;5113764;28;20116;-65
2023/09/27 00:27:43;;;;;;;9.23;6.10;;;;;;;24.07;48.74;100923.91;5113892;28;20051;-64
2023/09/27 00:30:14;;;;;;;10.55;6.43;;;;;;;24.07;48.79;100925.78;5113707;28;20044;-64
2023/09/27 00:32:42;;;;;;;10.10;6.13;;;;;;;24.06;48.86;100924.06;5113789;28;20100;-65
2023/09/27 00:35:14;;;;;;;9.00;5.97;;;;;;;24.05;48.93;100922.38;5113832;28;20126;-65
2023/09/27 00:37:44;;;;;;;9.68;6.00;;;;;;;24.04;48.95;100923.38;5113508;28;20051;-64
2023/09/27 00:40:14;;;;;;;11.10;6.15;;;;;;;24.03;48.96;100924.38;5113441;28;20048;-64
2023/09/27 00:42:43;;;;;;;8.43;6.13;;;;;;;24.01;48.78;100920.97;5113554;28;20050;-65
2023/09/27 00:45:11;;;;;;;10.55;6.05;;;;;;;23.92;48.82;100910.03;5113499;28;20077;-65
2023/09/27 00:47:40;;;;;;;9.20;6.22;;;;;;;23.98;48.98;100923.00;5113328;28;20563;-65
2023/09/27 00:50:09;;;;;;;10.20;5.80;;;;;;;23.99;49.10;100924.72;5113292;28;20563;-65
2023/09/27 00:52:40;;;;;;;10.07;6.70;;;;;;;23.97;49.06;100921.31;5113152;28;20054;-65
2023/09/27 00:55:12;;;;;;;11.10;6.15;;;;;;;23.96;48.94;100925.03;5113479;28;20044;-65
2023/09/27 00:57:41;;;;;;;10.98;5.85;;;;;;;23.95;49.15;100923.34;5113393;28;20050;-65
2023/09/27 01:00:11;;;;;;;10.77;6.07;;;;;;;23.95;48.93;100923.34;5095182;28;20095;-65
2023/09/27 01:02:40;;;;;;;8.57;5.40;;;;;;;23.95;49.20;100927.94;5113044;28;20100;-65
2023/09/27 01:05:11;;;;;;;9.05;5.82;;;;;;;23.93;49.25;100919.94;5112812;28;20040;-64
2023/09/27 01:07:40;;;;;;;10.50;5.72;;;;;;;23.93;49.10;100921.78;5113260;28;20048;-64
2023/09/27 01:10:10;;;;;;;8.48;5.95;;;;;;;23.91;49.25;100927.38;5112837;28;20047;-64
2023/09/27 01:12:39;;;;;;;10.25;5.65;;;;;;;23.91;49.31;100926.53;5112691;28;20059;-64
2023/09/27 01:15:08;;;;;;;7.90;5.78;;;;;;;23.89;49.20;100934.88;5112869;28;20039;-64
2023/09/27 01:17:37;;;;;;;8.98;5.80;;;;;;;23.89;49.25;100932.16;5113025;28;20050;-64
2023/09/27 01:20:07;;;;;;;8.73;5.95;;;;;;;23.88;49.30;100930.44;5112647;28;20043;-64
2023/09/27 01:22:35;;;;;;;9.77;5.47;;;;;;;23.88;49.08;100927.72;5112614;28;20484;-65
2023/09/27 01:25:12;;;;;;;7.95;5.80;;;;;;;23.87;49.19;100923.28;5112741;28;20056;-65
2023/09/27 01:27:41;;;;;;;10.43;6.13;;;;;;;23.86;49.26;100935.22;5112591;28;20043;-65
2023/09/27 01:30:10;;;;;;;8.68;5.43;;;;;;;23.85;49.42;100930.78;5112015;28;20485;-65
2023/09/27 01:32:39;;;;;;;9.25;5.53;;;;;;;23.83;49.35;100930.06;5112574;28;20100;-65
2023/09/27 01:35:08;;;;;;;7.97;5.50;;;;;;;23.84;49.19;100934.53;5112669;28;20043;-65
2023/09/27 01:37:37;;;;;;;8.80;6.22;;;;;;;23.82;49.30;100933.81;5112346;28;20048;-65
2023/09/27 01:40:10;;;;;;;7.43;5.60;;;;;;;23.82;49.48;100938.41;5112468;28;20074;-65
2023/09/27 01:42:43;;;;;;;10.23;5.88;;;;;;;23.81;49.74;100940.28;5112065;28;20138;-64
2023/09/27 01:45:12;;;;;;;;;;;;;;;23.79;49.44;100931.41;5112991;28;20436;-64
2023/09/27 01:47:41;;;;;;;8.07;5.90;;;;;;;23.77;49.54;100933.44;5112402;28;19920;-65
2023/09/27 01:50:12;;;;;;;9.05;5.57;;;;;;;23.78;49.53;100926.13;5112329;28;20097;-65
2023/09/27 01:52:43;;;;;;;8.43;5.88;;;;;;;23.77;49.44;100930.72;5112197;28;20043;-65
2023/09/27 01:55:13;;;;;;;9.05;5.80;;;;;;;23.76;49.49;100931.75;5112386;28;20403;-65
2023/09/27 01:57:42;;;;;;;11.43;6.38;;;;;;;23.75;49.42;100930.03;5112385;28;20093;-65
2023/09/27 02:00:11;;;;;;;8.70;5.93;;;;;;;23.73;49.48;100929.31;5112204;28;20436;-65
2023/09/27 02:02:39;;;;;;;10.32;5.88;;;;;;;23.73;49.45;100926.59;5112219;28;20142;-65
2023/09/27 02:05:09;;;;;;;8.65;5.78;;;;;;;23.73;49.65;100923.88;5112151;28;20039;-65
2023/09/27 02:07:39;;;;;;;9.38;5.85;;;;;;;23.72;49.61;100926.78;5112071;28;20047;-65
2023/09/27 02:10:08;;;;;;;8.95;5.68;;;;;;;23.70;49.79;100924.22;5111987;28;20454;-65
2023/09/27 02:12:38;;;;;;;10.52;6.13;;;;;;;23.69;49.72;100927.94;5112035;28;20059;-64
2023/09/27 02:15:09;;;;;;;9.32;5.90;;;;;;;23.69;49.74;100927.94;5112192;28;20039;-65
2023/09/27 02:17:38;;;;;;;8.40;5.95;;;;;;;23.66;49.69;100923.69;5112471;28;20123;-64
2023/09/27 02:20:09;;;;;;;11.65;6.13;;;;;;;23.66;49.47;100931.00;5111998;28;20043;-64
2023/09/27 02:22:40;;;;;;;10.07;5.68;;;;;;;23.66;49.58;100929.13;5111483;28;20177;-65
2023/09/27 02:25:11;;;;;;;10.18;6.10;;;;;;;23.65;49.87;100926.56;5112202;28;20487;-64
2023/09/27 02:27:42;;;;;;;8.68;6.10;;;;;;;23.63;49.78;100924.00;5111805;28;20476;-64
2023/09/27 02:30:12;;;;;;;9.65;6.00;;;;;;;23.62;49.66;100935.03;5112041;28;20047;-63
2023/09/27 02:32:41;;;;;;;7.82;5.50;;;;;;;23.63;49.79;100928.59;5114668;28;20047;-66
2023/09/27 02:35:10;;;;;;;8.52;5.72;;;;;;;23.62;50.07;100930.44;5116356;28;20047;-65
2023/09/27 02:37:41;;;;;;;8.50;5.50;;;;;;;23.61;49.93;100925.16;5116103;28;20467;-64
2023/09/27 02:40:12;;;;;;;12.15;5.90;;;;;;;23.60;49.66;100934.34;5116012;28;20123;-65
2023/09/27 02:42:46;;;;;;;9.40;5.57;;;;;;;23.58;49.96;100926.31;5115939;28;20040;-64
2023/09/27 02:45:15;;;;;;;11.20;6.03;;;;;;;23.59;49.96;100932.66;5115743;28;20056;-65
2023/09/27 02:47:47;;;;;;;8.25;5.38;;;;;;;23.58;50.09;100933.63;5115597;28;20039;-65
2023/09/27 02:50:16;;;;;;;9.30;5.82;;;;;;;23.58;50.15;100925.47;5115905;28;20043;-65
2023/09/27 02:52:44;;;;;;;7.97;5.75;;;;;;;23.56;50.18;100925.63;5115596;28;20044;-65
2023/09/27 02:55:13;;;;;;;12.13;6.00;;;;;;;23.55;50.26;100926.66;5115665;28;20078;-65
2023/09/27 02:57:50;;;;;;;9.10;5.88;;;;;;;23.53;50.11;100928.66;5115432;28;20097;-63
2023/09/27 03:00:22;;;;;;;9.23;5.70;;;;;;;23.54;50.21;100934.94;5115531;28;20048;-64
2023/09/27 03:02:51;;;;;;;7.97;5.72;;;;;;;23.53;50.31;100928.66;5115362;28;20051;-63
2023/09/27 03:05:20;;;;;;;8.00;5.60;;;;;;;23.51;50.31;100933.41;5115376;28;20126;-65
2023/09/27 03:07:48;;;;;;;8.48;5.80;;;;;;;23.52;50.28;100932.41;5115242;28;20043;-64
2023/09/27 03:10:18;;;;;;;8.30;5.65;;;;;;;23.50;50.33;100933.56;5115257;28;20481;-64
2023/09/27 03:12:49;;;;;;;8.82;5.95;;;;;;;23.51;50.32;100929.84;5114775;28;20047;-65
2023/09/27 03:15:18;;;;;;;8.65;6.03;;;;;;;23.47;50.25;100928.47;5115218;28;20040;-65
2023/09/27 03:17:48;;;;;;;9.68;5.60;;;;;;;23.46;50.43;100930.34;5115388;28;20134;-64
2023/09/27 03:20:18;;;;;;;8.85;5.82;;;;;;;23.48;50.34;100935.63;5114935;28;20499;-64
2023/09/27 03:22:48;;;;;;;8.77;6.00;;;;;;;23.47;50.37;100936.63;5114992;28;20050;-64
2023/09/27 03:25:17;;;;;;;10.82;6.07;;;;;;;23.46;50.42;100934.94;5096837;28;20051;-64
2023/09/27 03:27:48;;;;;;;8.25;5.80;;;;;;;23.45;50.64;100933.19;5115082;28;20090;-65
2023/09/27 03:30:17;;;;;;;8.65;5.60;;;;;;;23.42;50.59;100921.59;5115078;28;20086;-65
2023/09/27 03:32:45;;;;;;;8.73;5.75;;;;;;;23.43;50.61;100927.91;5114621;28;20492;-64
2023/09/27 03:35:14;;;;;;;9.27;5.70;;;;;;;23.43;50.51;100933.34;5114824;28;20050;-64
2023/09/27 03:37:44;;;;;;;8.70;5.88;;;;;;;23.40;50.73;100926.38;5114562;28;20044;-64
2023/09/27 03:40:13;;;;;;;9.23;5.63;;;;;;;23.40;50.63;100926.38;5114919;28;20044;-64
2023/09/27 03:42:44;;;;;;;10.63;5.68;;;;;;;23.38;50.56;100931.13;5114296;28;20046;-64
2023/09/27 03:45:15;;;;;;;8.18;5.93;;;;;;;23.40;50.80;100939.13;5114588;28;20085;-64
2023/09/27 03:47:45;;;;;;;9.38;5.57;;;;;;;23.37;50.67;100934.84;5114398;28;20484;-64
2023/09/27 03:50:14;;;;;;;8.20;5.65;;;;;;;23.39;50.71;100940.13;5114421;28;20050;-65
2023/09/27 03:52:43;;;;;;;7.38;5.38;;;;;;;23.36;50.92;100938.59;5114750;28;20051;-66
2023/09/27 03:55:12;;;;;;;9.05;5.43;;;;;;;23.36;50.72;100944.03;5114208;28;20052;-65
2023/09/27 03:57:41;;;;;;;7.55;5.72;;;;;;;23.36;50.78;100937.75;5114345;28;20048;-65
2023/09/27 04:00:13;;;;;;;7.40;5.30;;;;;;;23.34;51.09;100937.88;5114396;28;20048;-64
2023/09/27 04:02:44;;;;;;;8.93;5.78;;;;;;;23.33;50.54;100933.44;5114415;28;20044;-64
2023/09/27 04:05:13;;;;;;;7.07;5.25;;;;;;;23.33;50.67;100933.44;5114050;28;20048;-64
2023/09/27 04:07:42;;;;;;;7.57;5.43;;;;;;;23.32;50.68;100939.91;5114383;28;20043;-65
2023/09/27 04:10:11;;;;;;;9.07;5.88;;;;;;;23.31;50.80;100934.63;5113956;28;20476;-64
2023/09/27 04:12:39;;;;;;;8.90;5.60;;;;;;;23.30;50.97;100933.78;5113933;28;20135;-65
2023/09/27 04:15:09;;;;;;;9.35;5.68;;;;;;;23.30;50.90;100933.78;5113955;28;20568;-64
2023/09/27 04:17:38;;;;;;;8.68;5.63;;;;;;;23.30;50.95;100932.91;5113744;28;20047;-64
2023/09/27 04:20:14;;;;;;;11.07;6.18;;;;;;;23.28;50.68;100927.63;5113969;28;20086;-64
2023/09/27 04:22:48;;;;;;;10.32;5.68;;;;;;;23.27;50.95;100928.66;5114064;28;20074;-64
2023/09/27 04:25:18;;;;;;;8.40;5.80;;;;;;;23.27;50.95;100930.53;5113906;28;20446;-64
2023/09/27 04:27:49;;;;;;;7.75;5.20;;;;;;;23.26;50.89;100935.13;5113512;28;20130;-64
2023/09/27 04:30:20;;;;;;;8.50;6.18;;;;;;;23.25;51.02;100936.09;5113488;28;20040;-64
2023/09/27 04:32:51;;;;;;;8.93;5.78;;;;;;;23.25;50.99;100947.00;5113635;28;20043;-64
2023/09/27 04:35:21;;;;;;;8.80;6.18;;;;;;;23.23;51.27;100949.00;5113620;28;20071;-64
2023/09/27 04:37:50;;;;;;;9.40;5.93;;;;;;;23.23;51.29;100937.28;5113641;28;20131;-64
2023/09/27 04:40:18;;;;;;;9.43;5.40;;;;;;;23.23;51.24;100943.56;5113194;28;20062;-63
2023/09/27 04:42:47;;;;;;;9.45;5.45;;;;;;;23.21;51.21;100944.75;5113611;28;20048;-63
2023/09/27 04:45:16;;;;;;;9.23;5.68;;;;;;;23.21;51.22;100951.03;5113424;28;20131;-63
2023/09/27 04:47:44;;;;;;;9.05;6.30;;;;;;;23.20;51.14;100948.50;5113367;28;20069;-63
2023/09/27 04:50:15;;;;;;;8.75;5.88;;;;;;;23.20;51.18;100943.91;5113218;28;20132;-63
2023/09/27 04:52:45;;;;;;;8.10;5.75;;;;;;;23.19;51.34;100947.63;5113083;28;20488;-64
2023/09/27 04:55:14;;;;;;;8.13;6.05;;;;;;;23.18;51.30;100950.53;5112961;28;20047;-64
2023/09/27 04:57:43;;;;;;;7.82;5.30;;;;;;;23.18;51.14;100951.38;5095055;28;20065;-63
2023/09/27 05:00:18;;;;;;;9.18;5.90;;;;;;;23.15;51.00;100946.22;5113015;28;20408;-64
2023/09/27 05:02:48;;;;;;;7.93;5.97;;;;;;;23.16;51.14;100947.94;5112864;28;20134;-63
2023/09/27 05:05:16;;;;;;;8.18;5.95;;;;;;;23.15;51.15;100951.66;5113002;28;20044;-64
2023/09/27 05:07:49;;;;;;;9.55;6.13;;;;;;;23.15;51.29;100951.66;5112766;28;20074;-64
2023/09/27 05:10:17;;;;;;;8.38;5.68;;;;;;;23.15;51.28;100951.66;5112809;28;20054;-63
2023/09/27 05:12:46;;;;;;;10.48;6.13;;;;;;;23.13;51.31;100949.09;5112729;28;20451;-63
2023/09/27 05:15:16;;;;;;;9.55;5.80;;;;;;;23.14;51.30;100949.97;5112722;28;20144;-63
2023/09/27 05:17:44;;;;;;;8.82;5.45;;;;;;;23.12;51.37;100952.00;5094899;28;20412;-64
2023/09/27 05:20:13;;;;;;;8.23;5.70;;;;;;;23.12;51.41;100960.16;5112449;28;20583;-64
2023/09/27 05:22:42;;;;;;;9.15;5.78;;;;;;;23.12;51.35;100958.28;5112620;28;20201;-64
2023/09/27 05:25:13;;;;;;;8.65;5.82;;;;;;;23.11;51.65;100962.00;5112576;28;20118;-63
2023/09/27 05:27:41;;;;;;;9.80;5.70;;;;;;;23.11;51.59;100963.88;5111956;28;20051;-65
2023/09/27 05:30:15;;;;;;;8.43;6.00;;;;;;;23.10;51.60;100965.75;5112490;28;20040;-63
2023/09/27 05:32:43;;;;;;;7.70;5.47;;;;;;;23.11;51.71;100974.78;5112228;28;20051;-65
2023/09/27 05:35:12;;;;;;;7.80;5.43;;;;;;;23.10;51.92;100973.91;5112261;28;20412;-65
2023/09/27 05:37:41;;;;;;;11.48;5.68;;;;;;;23.09;52.15;100974.06;5112150;28;20079;-64
2023/09/27 05:40:12;;;;;;;8.02;5.90;;;;;;;23.10;52.05;100982.06;5111946;28;20126;-64
2023/09/27 05:42:40;;;;;;;8.73;5.80;;;;;;;23.09;52.28;100980.38;5111957;28;20039;-63
2023/09/27 05:45:11;;;;;;;9.73;5.63;;;;;;;23.10;52.21;100986.66;5111831;28;20050;-64
2023/09/27 05:47:41;;;;;;;18.25;6.00;;;;;;;23.10;52.65;100986.66;5111829;28;20126;-64
2023/09/27 05:50:12;;;;;;;11.15;6.35;;;;;;;23.10;52.58;100986.66;5111835;28;20377;-64
2023/09/27 05:52:43;;;;;;;11.57;6.30;;;;;;;23.08;52.65;100978.66;5111908;28;20051;-64
2023/09/27 05:55:15;;;;;;;9.50;5.88;;;;;;;23.09;52.43;100982.25;5111866;28;20056;-64
2023/09/27 05:57:44;;;;;;;10.70;5.97;;;;;;;23.10;52.49;100992.09;5111851;28;20086;-64
2023/09/27 06:00:22;;;;;;;10.93;6.18;;;;;;;23.07;52.65;100981.53;5111767;28;20150;-63
2023/09/27 06:02:51;;;;;;;8.75;5.45;;;;;;;23.09;52.39;100990.41;5111936;28;20131;-64
2023/09/27 06:05:20;;;;;;;8.90;6.20;;;;;;;23.10;52.42;100992.09;5111688;28;20512;-64
2023/09/27 06:07:49;;;;;;;10.35;6.25;;;;;;;23.09;52.30;100995.84;5111643;28;20047;-63
2023/09/27 06:10:18;;;;;;;12.50;6.15;;;;;;;23.08;52.44;100994.13;5111995;28;20136;-64
2023/09/27 06:12:46;;;;;;;11.07;6.35;;;;;;;23.08;52.40;100999.56;5111149;28;20083;-63
2023/09/27 06:15:16;;;;;;;9.00;6.05;;;;;;;23.08;52.50;100997.72;5111773;28;20140;-62
2023/09/27 06:17:45;;;;;;;9.48;6.05;;;;;;;23.08;52.57;101005.03;5109316;28;20040;-63
2023/09/27 06:20:19;;;;;;;10.10;6.43;;;;;;;23.10;52.43;101005.72;5111516;28;20146;-63
2023/09/27 06:22:50;;;;;;;10.20;5.88;;;;;;;23.07;52.48;101003.31;5109794;28;20048;-63
2023/09/27 06:25:23;;;;;;;10.05;6.07;;;;;;;23.09;52.36;101004.84;5111281;28;20043;-63
2023/09/27 06:27:52;;;;;;;9.52;5.90;;;;;;;23.09;52.65;101017.63;5111452;28;20048;-63
2023/09/27 06:30:20;;;;;;;9.65;6.00;;;;;;;23.10;52.65;101017.44;5111411;28;20181;-63
2023/09/27 06:32:49;;;;;;;9.88;5.85;;;;;;;23.11;52.65;101023.75;5111213;28;20040;-62
2023/09/27 06:35:20;;;;;;;9.88;5.97;;;;;;;23.11;52.49;101026.47;5111103;28;20050;-63
2023/09/27 06:37:49;;;;;;;12.77;6.45;;;;;;;23.11;52.53;101026.47;5111444;28;20040;-63
2023/09/27 06:40:22;;;;;;;10.85;6.10;;;;;;;23.12;52.54;101028.19;5111500;28;20100;-63
2023/09/27 06:42:50;;;;;;;9.77;5.70;;;;;;;23.11;52.67;101031.91;5110456;28;20111;-63
2023/09/27 06:45:19;;;;;;;10.90;6.05;;;;;;;23.10;52.56;101028.34;5100277;28;20119;-63
2023/09/27 06:47:47;;;;;;;9.30;5.90;;;;;;;23.12;52.54;101030.91;5111061;28;20044;-64
2023/09/27 06:50:18;;;;;;;12.38;6.43;;;;;;;23.12;52.61;101028.19;5111437;28;20048;-63
2023/09/27 06:52:48;;;;;;;8.32;5.55;;;;;;;23.12;52.49;101034.47;5111648;28;20048;-64
2023/09/27 06:55:18;;;;;;;10.63;5.78;;;;;;;23.11;52.49;101026.47;5110742;28;20043;-67
2023/09/27 06:57:49;;;;;;;11.85;6.10;;;;;;;23.12;52.68;101036.34;5111254;28;20047;-66
2023/09/27 07:00:24;;;;;;;11.32;5.97;;;;;;;23.13;52.39;101038.03;5111705;28;20125;-66
2023/09/27 07:02:53;;;;;;;10.10;6.18;;;;;;;23.13;52.42;101032.59;5111177;28;20054;-64
2023/09/27 07:05:22;;;;;;;12.98;6.55;;;;;;;23.10;52.17;101038.38;5111384;28;20051;-64
2023/09/27 07:07:53;;;;;;;10.88;6.00;;;;;;;23.12;52.44;101039.91;5111155;28;20525;-64
2023/09/27 07:10:23;;;;;;;10.60;6.30;;;;;;;23.13;52.40;101040.78;5111076;28;20054;-64
2023/09/27 07:12:53;;;;;;;12.30;6.07;;;;;;;23.14;52.66;101040.59;5111121;28;20062;-64
2023/09/27 07:15:22;;;;;;;9.93;6.18;;;;;;;23.15;52.58;101041.47;5108453;28;20054;-64
2023/09/27 07:17:50;;;;;;;10.23;6.35;;;;;;;23.14;52.52;101042.47;5112826;28;20048;-64
2023/09/27 07:20:24;;;;;;;12.82;6.68;;;;;;;23.16;52.57;101037.72;5114993;28;20040;-66
2023/09/27 07:22:54;;;;;;;10.35;5.95;;;;;;;23.16;52.59;101040.44;5114624;28;20044;-64
2023/09/27 07:25:23;;;;;;;10.82;6.50;;;;;;;23.16;52.59;101043.16;5114837;28;20461;-64
2023/09/27 07:27:53;;;;;;;10.98;5.93;;;;;;;23.18;52.62;101049.34;5113382;28;20063;-64
2023/09/27 07:30:23;;;;;;;10.48;6.25;;;;;;;23.18;52.82;101053.94;5114675;28;20135;-64
2023/09/27 07:32:53;;;;;;;14.38;6.15;;;;;;;23.18;52.58;101054.78;5114717;28;20051;-65
2023/09/27 07:35:23;;;;;;;11.45;6.10;;;;;;;23.19;52.69;101048.31;5114420;28;20066;-65
2023/09/27 07:37:52;;;;;;;11.85;6.03;;;;;;;23.17;52.78;101044.91;5114359;28;20388;-65
2023/09/27 07:40:20;;;;;;;13.20;5.82;;;;;;;23.20;52.75;101052.75;5114333;28;20130;-65
2023/09/27 07:42:48;;;;;;;10.38;5.88;;;;;;;23.21;52.70;101056.34;5114503;28;20043;-65
2023/09/27 07:45:21;;;;;;;12.18;6.40;;;;;;;23.21;52.71;101051.75;5114453;28;20551;-65
2023/09/27 07:47:52;;;;;;;10.13;6.10;;;;;;;23.22;52.71;101049.88;5097301;28;20047;-64
2023/09/27 07:50:21;;;;;;;9.07;5.88;;;;;;;23.24;52.67;101058.72;5114257;28;20055;-64
2023/09/27 07:52:51;;;;;;;11.52;6.18;;;;;;;23.24;52.67;101054.16;5114177;28;20047;-64
2023/09/27 07:55:21;;;;;;;11.07;6.07;;;;;;;23.23;52.67;101063.31;5114258;28;20052;-65
2023/09/27 07:57:52;;;;;;;9.02;5.80;;;;;;;23.26;52.71;101056.72;5114339;28;20051;-64
2023/09/27 08:00:27;;;;;;;10.77;6.50;;;;;;;23.26;52.65;101057.59;5114313;28;20058;-64
2023/09/27 08:02:58;;;;;;;10.73;6.22;;;;;;;23.27;52.57;101064.75;5114111;28;20142;-65
2023/09/27 08:05:27;;;;;;;11.98;6.78;;;;;;;23.28;52.72;101054.72;5114099;28;20043;-64
2023/09/27 08:07:55;;;;;;;11.43;6.05;;;;;;;23.26;52.43;101057.59;5114257;28;20047;-64
2023/09/27 08:10:24;;;;;;;11.10;6.13;;;;;;;23.28;52.53;101066.44;5114291;28;20044;-64
2023/09/27 08:12:53;;;;;;;11.65;6.20;;;;;;;23.30;52.47;101058.13;5113452;28;20047;-64
2023/09/27 08:15:22;;;;;;;9.68;6.22;;;;;;;23.29;52.52;101057.28;5113184;28;20412;-64
2023/09/27 08:17:50;;;;;;;12.30;6.47;;;;;;;23.31;52.40;101066.13;5113432;28;20047;-65
2023/09/27 08:20:19;;;;;;;10.02;6.03;;;;;;;23.31;52.48;101055.25;5113490;28;20047;-64
2023/09/27 08:22:47;;;;;;;10.18;5.85;;;;;;;23.33;52.38;101064.09;5113643;28;20127;-64
2023/09/27 08:25:16;;;;;;;13.00;6.28;;;;;;;23.34;52.41;101060.38;5113870;28;20063;-64
2023/09/27 08:27:44;;;;;;;10.05;5.90;;;;;;;23.34;52.48;101059.50;5113794;28;20073;-64
2023/09/27 08:30:14;;;;;;;10.20;6.20;;;;;;;23.35;52.40;101056.63;5112465;28;20052;-64
2023/09/27 08:32:44;;;;;;;11.35;6.35;;;;;;;23.37;52.50;101061.94;5113554;28;20647;-65
2023/09/27 08:35:12;;;;;;;9.43;5.50;;;;;;;23.37;52.62;101062.81;5113375;28;20377;-64
2023/09/27 08:37:42;;;;;;;10.60;6.15;;;;;;;23.39;52.58;101054.47;5113407;28;20047;-64
2023/09/27 08:40:13;;;;;;;10.07;6.00;;;;;;;23.41;52.54;101056.03;5113274;28;20130;-64
2023/09/27 08:42:43;;;;;;;11.57;5.53;;;;;;;23.41;52.48;101058.75;5113483;28;20074;-64
2023/09/27 08:45:13;;;;;;;10.90;5.97;;;;;;;23.41;52.13;101056.03;5113208;28;20087;-65
2023/09/27 08:47:45;;;;;;;11.73;6.65;;;;;;;23.43;52.56;101059.44;5113568;28;20515;-64
2023/09/27 08:50:15;;;;;;;10.68;5.80;;;;;;;23.45;52.60;101061.13;5113302;28;20405;-64
2023/09/27 08:52:47;;;;;;;11.77;5.85;;;;;;;23.47;52.59;101053.69;5113142;28;20061;-65
2023/09/27 08:55:16;;;;;;;11.15;5.90;;;;;;;23.47;52.46;101050.97;5113025;28;20066;-64
2023/09/27 08:57:47;;;;;;;9.35;5.63;;;;;;;23.48;52.62;101053.53;5113023;28;20087;-64
2023/09/27 09:00:16;;;;;;;10.55;5.85;;;;;;;23.48;52.71;101049.97;5113362;28;20132;-65
2023/09/27 09:02:48;;;;;;;10.23;5.75;;;;;;;23.51;52.90;101052.34;5113022;28;20047;-64
2023/09/27 09:05:19;;;;;;;8.23;5.33;;;;;;;23.51;52.68;101047.78;5113148;28;20101;-65
2023/09/27 09:07:47;;;;;;;10.30;5.70;;;;;;;23.52;52.63;101052.19;5112814;28;20268;-65
2023/09/27 09:10:16;;;;;;;8.27;5.40;;;;;;;23.54;52.65;101054.75;5112699;28;20075;-64
2023/09/27 09:12:47;;;;;;;9.32;5.60;;;;;;;23.54;52.81;101043.88;5112777;28;20051;-64
2023/09/27 09:15:28;;;;;;;8.93;4.82;;;;;;;23.57;52.66;101043.56;5112911;28;20127;-65
2023/09/27 09:17:58;;;;;;;10.75;6.20;;;;;;;23.59;52.64;101044.31;5112628;28;20058;-64
2023/09/27 09:20:33;;;;;;;10.65;5.88;;;;;;;23.60;52.71;101046.00;5112278;28;20043;-64
2023/09/27 09:23:06;;;;;;;8.38;5.60;;;;;;;23.62;52.69;101042.09;5112671;28;20058;-64
2023/09/27 09:25:43;;;;;;;13.30;6.18;;;;;;;23.62;52.56;101038.53;5112508;28;20505;-66
2023/09/27 09:28:13;;;;;;;11.57;5.97;;;;;;;23.65;52.49;101035.50;5112675;28;20048;-65
2023/09/27 09:30:44;;;;;;;9.07;5.80;;;;;;;23.66;52.62;101037.22;5112357;28;20453;-65
2023/09/27 09:33:19;;;;;;;11.85;5.95;;;;;;;23.66;52.38;101032.63;5112383;28;20473;-66
2023/09/27 09:35:48;;;;;;;8.75;6.10;;;;;;;23.69;52.34;101040.47;5112671;28;20047;-66
2023/09/27 09:38:25;;;;;;;7.93;5.28;;;;;;;23.72;52.21;101042.00;5112270;28;20055;-66
2023/09/27 09:40:54;;;;;;;9.38;5.72;;;;;;;23.74;52.05;101031.84;5111879;28;20472;-66
2023/09/27 09:43:33;;;;;;;8.77;5.80;;;;;;;23.75;52.19;101036.28;5112264;28;20044;-66
2023/09/27 09:46:03;;;;;;;9.93;5.60;;;;;;;23.78;52.02;101030.50;5112158;28;20056;-66
2023/09/27 09:48:35;;;;;;;10.20;5.53;;;;;;;23.80;51.94;101033.91;5112470;28;20088;-66
2023/09/27 09:51:06;;;;;;;9.50;5.80;;;;;;;23.81;52.10;101024.72;5112498;28;20051;-65
2023/09/27 09:53:39;;;;;;;9.50;5.85;;;;;;;23.85;52.21;101020.69;5112380;28;20046;-66
2023/09/27 09:56:09;;;;;;;9.20;5.40;;;;;;;23.87;52.47;101023.25;5112112;28;20147;-65
2023/09/27 09:58:44;;;;;;;9.93;5.90;;;;;;;23.90;52.73;101023.75;5112395;28;20464;-65
2023/09/27 10:01:19;;;;;;;9.38;5.90;;;;;;;23.92;52.66;101024.44;5112040;28;20325;-65
2023/09/27 10:03:52;;;;;;;9.65;5.50;;;;;;;23.94;52.65;101017.00;5111638;28;20051;-66
2023/09/27 10:06:22;;;;;;;10.90;5.72;;;;;;;23.97;52.87;101021.25;5111788;28;20286;-65
2023/09/27 10:09:13;;;;;;;9.57;5.75;;;;;;;23.99;52.61;101017.34;5111892;28;20138;-65
2023/09/27 10:12:02;;;;;;;10.00;5.38;;;;;;;24.05;52.72;101012.28;5111894;28;20048;-66
2023/09/27 10:14:31;;;;;;;8.60;5.13;;;;;;;24.07;52.85;101015.69;5111707;28;20051;-66
2023/09/27 10:16:59;;;;;;;9.27;5.32;;;;;;;24.12;52.74;101016.06;5111537;28;20048;-65
2023/09/27 10:19:29;;;;;;;9.73;5.47;;;;;;;24.15;52.42;101010.31;5111535;28;20050;-65
2023/09/27 10:22:14;;;;;;;10.75;5.28;;;;;;;24.18;52.38;101007.25;5111864;28;20126;-65
2023/09/27 10:24:42;;;;;;;7.45;5.13;;;;;;;24.21;52.42;101010.50;5111868;28;20101;-65
2023/09/27 10:27:11;;;;;;;8.30;5.55;;;;;;;24.24;52.39;101003.88;5111807;28;20051;-66
2023/09/27 10:29:57;;;;;;;7.88;4.70;;;;;;;24.30;52.28;100992.31;5111590;28;20055;-66
2023/09/27 10:32:31;;;;;;;9.23;5.60;;;;;;;24.32;51.91;100995.78;5112240;28;20388;-65
2023/09/27 10:35:15;;;;;;;;;;;;;;;24.35;52.06;100987.25;5112007;28;20057;-65
2023/09/27 10:38:06;;;;;;;8.25;5.15;;;;;;;24.39;51.83;100988.63;5111783;28;20014;-66
2023/09/27 10:40:42;;;;;;;7.90;5.13;;;;;;;24.43;51.87;100981.84;5111887;28;20408;-65
2023/09/27 10:43:10;;;;;;;7.90;5.15;;;;;;;24.48;51.80;100993.09;5111629;28;20386;-66
2023/09/27 10:45:38;;;;;;;7.90;4.95;;;;;;;24.49;51.79;100986.63;5111516;28;20052;-66
2023/09/27 10:48:18;;;;;;;9.70;5.35;;;;;;;24.55;51.54;100991.44;5111633;28;20105;-66
2023/09/27 10:50:53;;;;;;;8.73;5.18;;;;;;;24.59;51.38;100977.44;5111486;28;20079;-66
2023/09/27 10:53:22;;;;;;;8.35;5.30;;;;;;;24.63;51.23;100976.97;5114091;28;20154;-66
2023/09/27 10:55:50;;;;;;;8.65;5.20;;;;;;;24.67;51.19;100983.78;5115414;28;20134;-66
2023/09/27 10:58:19;;;;;;;7.10;5.32;;;;;;;24.70;51.13;100972.53;5115354;28;20481;-65
2023/09/27 11:00:51;;;;;;;8.10;5.47;;;;;;;24.73;50.71;100961.31;5115372;28;20203;-65
2023/09/27 11:03:20;;;;;;;7.55;5.13;;;;;;;24.78;50.81;100958.06;5115342;28;20124;-66
2023/09/27 11:05:48;;;;;;;8.23;5.30;;;;;;;24.82;50.60;100956.72;5097589;28;20071;-66
2023/09/27 11:08:22;;;;;;;7.65;5.10;;;;;;;24.86;50.47;100954.50;5115283;28;20541;-66
2023/09/27 11:10:52;;;;;;;8.80;4.95;;;;;;;24.88;50.30;100947.84;5115356;28;20090;-66
2023/09/27 11:13:21;;;;;;;7.43;5.10;;;;;;;24.93;50.39;100944.63;5115009;28;20524;-66
2023/09/27 11:15:50;;;;;;;7.65;5.03;;;;;;;24.97;50.24;100946.00;5114999;28;20548;-66
2023/09/27 11:18:19;;;;;;;9.60;5.50;;;;;;;24.99;50.11;100944.78;5115155;28;20085;-66
2023/09/27 11:20:48;;;;;;;8.43;5.05;;;;;;;25.03;49.72;100938.03;5115198;28;20047;-66
2023/09/27 11:23:19;;;;;;;6.72;4.82;;;;;;;25.08;49.64;100940.22;5115121;28;20044;-66
2023/09/27 11:25:50;;;;;;;6.88;4.53;;;;;;;25.11;49.50;100938.03;5115136;28;20089;-66
2023/09/27 11:28:19;;;;;;;6.68;4.70;;;;;;;25.15;49.56;100933.06;5114689;28;20452;-65
2023/09/27 11:30:56;;;;;;;6.80;4.78;;;;;;;25.19;49.27;100939.03;5115113;28;20040;-66
2023/09/27 11:33:31;;;;;;;7.82;5.18;;;;;;;25.22;49.10;100933.25;5114814;28;20040;-66
2023/09/27 11:36:04;;;;;;;8.55;4.93;;;;;;;25.25;49.20;100922.84;5114716;28;20051;-66